Time;durP1;ratioP1;P1;durP2;ratioP2;P2;SDS_P1;SDS_P2;PMS_P1;PMS_P2;Temp;Humidity;BMP_temperature;BMP_pressure;BME280_temperature;BME280_humidity;BME280_pressure;Samples;Min_cycle;Max_cycle;Signal;HPM_P1;HPM_P2
2023/02/25 00:00:33;;;;;;;;;;;;;;;;;;5070772;28;2099;-42
2023/02/25 00:03:00;;;;;;;;;;;;;;;;;;5070790;28;2035;-41
2023/02/25 00:05:29;;;;;;;;;;;;;;;;;;5070746;28;2186;-40
2023/02/25 00:07:58;;;;;;;;;;;;;;;;;;5070829;28;1842;-42
2023/02/25 00:10:25;;;;;;;;;;;;;;;;;;5070728;28;2268;-41
2023/02/25 00:12:52;;;;;;;;;;;;;;;;;;5070603;28;1969;-41
2023/02/25 00:15:19;;;;;;;;;;;;;;;;;;5070762;28;1746;-40
2023/02/25 00:17:48;;;;;;;;;;;;;;;;;;5070929;28;1698;-42
2023/02/25 00:20:17;;;;;;;;;;;;;;;;;;5070722;28;1709;-40
2023/02/25 00:22:45;;;;;;;;;;;;;;;;;;5087809;28;2230;-40
2023/02/25 00:25:15;;;;;;;;;;;;;;;;;;5090785;28;1948;-39
2023/02/25 00:27:43;;;;;;;;;;;;;;;;;;5090878;28;2034;-41
2023/02/25 00:30:11;;;;;;;;;;;;;;;;;;5090289;28;1708;-40
2023/02/25 00:32:38;;;;;;;;;;;;;;;;;;5072440;28;1908;-42
2023/02/25 00:35:06;;;;;;;;;;;;;;;;;;5072389;28;1932;-41
2023/02/25 00:37:35;;;;;;;;;;;;;;;;;;5090632;28;1988;-40
2023/02/25 00:40:05;;;;;;;;;;;;;;;;;;5072546;28;1907;-42
2023/02/25 00:42:32;;;;;;;;;;;;;;;;;;5090620;28;2163;-41
2023/02/25 00:44:59;;;;;;;;;;;;;;;;;;5090409;28;2116;-41
2023/02/25 00:47:26;;;;;;;;;;;;;;;;;;5090496;28;1781;-41
2023/02/25 00:49:53;;;;;;;;;;;;;;;;;;5072565;28;2103;-40
2023/02/25 00:52:21;;;;;;;;;;;;;;;;;;5090519;28;1482;-41
2023/02/25 00:54:48;;;;;;;;;;;;;;;;;;5090714;28;1915;-41
2023/02/25 00:57:15;;;;;;;;;;;;;;;;;;5090529;28;2093;-42
2023/02/25 00:59:42;;;;;;;;;;;;;;;;;;5090153;28;1974;-41
2023/02/25 01:02:11;;;;;;;;;;;;;;;;;;5090302;28;1710;-41
2023/02/25 01:04:40;;;;;;;;;;;;;;;;;;5069252;28;1876;-43
2023/02/25 01:07:08;;;;;;;;;;;;;;;;;;5070499;28;1431;-44
2023/02/25 01:09:35;;;;;;;;;;;;;;;;;;5070258;28;2117;-42
2023/02/25 01:12:02;;;;;;;;;;;;;;;;;;5055704;28;2043;-41
2023/02/25 01:14:30;;;;;;;;;;;;;;;;;;5075508;28;2091;-40
2023/02/25 01:17:00;;;;;;;;;;;;;;;;;;5094040;28;1811;-45
2023/02/25 01:19:28;;;;;;;;;;;;;;;;;;5093932;28;1902;-41
2023/02/25 01:21:56;;;;;;;;;;;;;;;;;;5093874;28;1745;-41
2023/02/25 01:24:25;;;;;;;;;;;;;;;;;;5094252;28;1812;-40
2023/02/25 01:26:54;;;;;;;;;;;;;;;;;;5093895;28;2018;-41
2023/02/25 01:29:25;;;;;;;;;;;;;;;;;;5094044;28;1647;-40
2023/02/25 01:31:53;;;;;;;;;;;;;;;;;;5093822;28;2201;-41
2023/02/25 01:34:22;;;;;;;;;;;;;;;;;;5075622;28;2523;-42
2023/02/25 01:36:49;;;;;;;;;;;;;;;;;;5093400;28;1810;-40
2023/02/25 01:39:17;;;;;;;;;;;;;;;;;;5093393;28;2340;-43
2023/02/25 01:41:45;;;;;;;;;;;;;;;;;;5093657;28;1954;-44
2023/02/25 01:44:14;;;;;;;;;;;;;;;;;;5093604;28;1749;-41
2023/02/25 01:46:42;;;;;;;;;;;;;;;;;;5075212;28;1926;-39
2023/02/25 01:49:19;;;;;;;;;;;;;;;;;;5093594;28;1839;-40
2023/02/25 01:51:49;;;;;;;;;;;;;;;;;;5093181;28;2207;-40
2023/02/25 01:54:16;;;;;;;;;;;;;;;;;;5075211;28;1976;-40
2023/02/25 01:56:47;;;;;;;;;;;;;;;;;;5075274;28;2033;-40
2023/02/25 01:59:16;;;;;;;;;;;;;;;;;;5075070;28;2052;-40
2023/02/25 02:01:43;;;;;;;;;;;;;;;;;;5075117;28;2036;-41
2023/02/25 02:04:11;;;;;;;;;;;;;;;;;;5075098;28;2371;-40
2023/02/25 02:06:40;;;;;;;;;;;;;;;;;;5073793;28;1683;-44
2023/02/25 02:09:08;;;;;;;;;;;;;;;;;;5073000;28;2113;-42
2023/02/25 02:11:35;;;;;;;;;;;;;;;;;;5054902;28;1653;-42
2023/02/25 02:14:03;;;;;;;;;;;;;;;;;;5072842;28;2120;-43
2023/02/25 02:16:33;;;;;;;;;;;;;;;;;;5072864;28;2226;-40
2023/02/25 02:19:19;;;;;;;;;;;;;;;;;;5072507;28;1249;-40
2023/02/25 02:22:05;;;;;;;;;;;;;;;;;;5071988;28;1937;-44
2023/02/25 02:24:32;;;;;;;;;;;;;;;;;;5085912;28;2178;-41
2023/02/25 02:27:09;;;;;;;;;;;;;;;;;;5092870;28;1965;-41
2023/02/25 02:30:03;;;;;;;;;;;;;;;;;;5092698;28;2280;-41
2023/02/25 02:32:37;;;;;;;;;;;;;;;;;;5074352;28;2086;-44
2023/02/25 02:35:13;;;;;;;;;;;;;;;;;;5092556;28;1936;-42
2023/02/25 02:37:41;;;;;;;;;;;;;;;;;;5092409;28;1623;-42
2023/02/25 02:40:14;;;;;;;;;;;;;;;;;;5074252;28;2321;-40
2023/02/25 02:42:46;;;;;;;;;;;;;;;;;;5074078;28;2281;-41
2023/02/25 02:45:18;;;;;;;;;;;;;;;;;;5074104;28;1560;-46
2023/02/25 02:47:48;;;;;;;;;;;;;;;;;;5074494;28;2031;-41
2023/02/25 02:50:32;;;;;;;;;;;;;;;;;;5092210;28;1960;-46
2023/02/25 02:53:03;;;;;;;;;;;;;;;;;;5092148;28;2025;-40
2023/02/25 02:55:34;;;;;;;;;;;;;;;;;;5092060;28;1915;-41
2023/02/25 02:58:08;;;;;;;;;;;;;;;;;;5092250;28;2196;-45
2023/02/25 03:00:38;;;;;;;;;;;;;;;;;;5073879;28;2431;-43
2023/02/25 03:03:15;;;;;;;;;;;;;;;;;;5074286;28;2059;-43
2023/02/25 03:05:44;;;;;;;;;;;;;;;;;;5070286;28;2164;-41
2023/02/25 03:08:31;;;;;;;;;;;;;;;;;;5071730;28;1824;-45
2023/02/25 03:11:00;;;;;;;;;;;;;;;;;;5071233;28;1892;-39
2023/02/25 03:13:28;;;;;;;;;;;;;;;;;;5053576;28;2291;-40
2023/02/25 03:15:57;;;;;;;;;;;;;;;;;;5072056;28;1840;-40
2023/02/25 03:18:30;;;;;;;;;;;;;;;;;;5053723;28;1855;-43
2023/02/25 03:20:59;;;;;;;;;;;;;;;;;;5071619;28;1956;-44
2023/02/25 03:23:29;;;;;;;;;;;;;;;;;;5053395;28;2122;-40
2023/02/25 03:26:05;;;;;;;;;;;;;;;;;;5053689;28;2305;-43
2023/02/25 03:28:33;;;;;;;;;;;;;;;;;;5053467;28;1646;-47
2023/02/25 03:31:00;;;;;;;;;;;;;;;;;;5053263;28;1737;-41
2023/02/25 03:33:40;;;;;;;;;;;;;;;;;;5052421;28;1937;-41
2023/02/25 03:36:10;;;;;;;;;;;;;;;;;;5071130;28;2023;-40
2023/02/25 03:38:41;;;;;;;;;;;;;;;;;;5053246;28;2171;-39
2023/02/25 03:41:09;;;;;;;;;;;;;;;;;;5071252;28;2104;-44
2023/02/25 03:43:40;;;;;;;;;;;;;;;;;;5071688;28;1687;-45
2023/02/25 03:46:08;;;;;;;;;;;;;;;;;;5052786;28;1800;-41
2023/02/25 03:48:36;;;;;;;;;;;;;;;;;;5071159;28;1705;-41
2023/02/25 03:51:07;;;;;;;;;;;;;;;;;;5053046;28;2204;-40
2023/02/25 03:53:38;;;;;;;;;;;;;;;;;;5053172;28;2386;-43
2023/02/25 03:56:17;;;;;;;;;;;;;;;;;;5053114;28;1931;-47
2023/02/25 03:58:44;;;;;;;;;;;;;;;;;;5052373;28;1755;-43
2023/02/25 04:01:16;;;;;;;;;;;;;;;;;;5070558;28;1921;-41
2023/02/25 04:03:44;;;;;;;;;;;;;;;;;;5053051;28;1902;-40
2023/02/25 04:06:12;;;;;;;;;;;;;;;;;;5068647;28;1561;-44
2023/02/25 04:08:40;;;;;;;;;;;;;;;;;;5090838;28;2290;-42
2023/02/25 04:11:07;;;;;;;;;;;;;;;;;;5091227;28;1741;-39
2023/02/25 04:13:34;;;;;;;;;;;;;;;;;;5072822;28;1969;-40
2023/02/25 04:16:02;;;;;;;;;;;;;;;;;;5091202;28;2132;-43
2023/02/25 04:18:29;;;;;;;;;;;;;;;;;;5073180;28;1437;-44
2023/02/25 04:20:56;;;;;;;;;;;;;;;;;;5072851;28;1808;-42
2023/02/25 04:23:23;;;;;;;;;;;;;;;;;;5091121;28;2147;-42
2023/02/25 04:25:51;;;;;;;;;;;;;;;;;;5084014;28;2044;-40
2023/02/25 04:28:18;;;;;;;;;;;;;;;;;;5070712;28;1690;-40
2023/02/25 04:30:45;;;;;;;;;;;;;;;;;;5070549;28;1457;-39
2023/02/25 04:33:12;;;;;;;;;;;;;;;;;;5070599;28;2027;-42
2023/02/25 04:35:40;;;;;;;;;;;;;;;;;;5070386;28;1913;-46
2023/02/25 04:38:07;;;;;;;;;;;;;;;;;;5052973;28;1988;-40
2023/02/25 04:40:35;;;;;;;;;;;;;;;;;;5070521;28;1918;-40
2023/02/25 04:43:03;;;;;;;;;;;;;;;;;;5090642;28;1442;-40
2023/02/25 04:45:30;;;;;;;;;;;;;;;;;;5092712;28;1607;-41
2023/02/25 04:47:57;;;;;;;;;;;;;;;;;;5094975;28;1924;-40
2023/02/25 04:50:24;;;;;;;;;;;;;;;;;;5094394;28;2265;-40
2023/02/25 04:52:52;;;;;;;;;;;;;;;;;;5094702;28;1699;-40
2023/02/25 04:55:19;;;;;;;;;;;;;;;;;;5094490;28;2016;-47
2023/02/25 04:57:46;;;;;;;;;;;;;;;;;;5094559;28;2258;-40
2023/02/25 05:00:15;;;;;;;;;;;;;;;;;;5094633;28;1898;-40
2023/02/25 05:02:45;;;;;;;;;;;;;;;;;;5094308;28;1906;-40
2023/02/25 05:05:13;;;;;;;;;;;;;;;;;;5087200;28;2213;-40
2023/02/25 05:07:40;;;;;;;;;;;;;;;;;;5073846;28;1936;-40
2023/02/25 05:10:09;;;;;;;;;;;;;;;;;;5074066;28;1950;-39
2023/02/25 05:12:37;;;;;;;;;;;;;;;;;;5073903;28;1483;-40
2023/02/25 05:15:04;;;;;;;;;;;;;;;;;;5074014;28;1957;-42
2023/02/25 05:17:31;;;;;;;;;;;;;;;;;;5074238;28;1798;-40
2023/02/25 05:19:59;;;;;;;;;;;;;;;;;;5073818;28;2067;-40
2023/02/25 05:22:26;;;;;;;;;;;;;;;;;;5074393;28;2017;-40
2023/02/25 05:24:53;;;;;;;;;;;;;;;;;;5073840;28;2182;-40
2023/02/25 05:27:21;;;;;;;;;;;;;;;;;;5073783;28;1846;-39
2023/02/25 05:29:50;;;;;;;;;;;;;;;;;;5073719;28;2065;-39
2023/02/25 05:32:17;;;;;;;;;;;;;;;;;;5076269;28;2203;-39
2023/02/25 05:34:45;;;;;;;;;;;;;;;;;;5093252;28;1967;-39
2023/02/25 05:37:12;;;;;;;;;;;;;;;;;;5093784;28;1490;-39
2023/02/25 05:39:41;;;;;;;;;;;;;;;;;;5093752;28;2183;-40
2023/02/25 05:42:11;;;;;;;;;;;;;;;;;;5093784;28;1533;-38
2023/02/25 05:44:38;;;;;;;;;;;;;;;;;;5093842;28;2007;-40
2023/02/25 05:47:06;;;;;;;;;;;;;;;;;;5093731;28;1688;-39
2023/02/25 05:49:33;;;;;;;;;;;;;;;;;;5093732;28;1655;-40
2023/02/25 05:52:01;;;;;;;;;;;;;;;;;;5093476;28;2288;-40
2023/02/25 05:54:28;;;;;;;;;;;;;;;;;;5093517;28;1915;-39
2023/02/25 05:56:55;;;;;;;;;;;;;;;;;;5092096;28;2212;-39
2023/02/25 05:59:22;;;;;;;;;;;;;;;;;;5093528;28;2103;-40
2023/02/25 06:01:49;;;;;;;;;;;;;;;;;;5093025;28;1877;-41
2023/02/25 06:04:19;;;;;;;;;;;;;;;;;;5093665;28;1815;-39
2023/02/25 06:06:50;;;;;;;;;;;;;;;;;;5073128;28;1653;-40
2023/02/25 06:09:18;;;;;;;;;;;;;;;;;;5072909;28;2058;-40
2023/02/25 06:11:46;;;;;;;;;;;;;;;;;;5073317;28;2015;-39
2023/02/25 06:14:14;;;;;;;;;;;;;;;;;;5072303;28;2115;-39
2023/02/25 06:16:41;;;;;;;;;;;;;;;;;;5072610;28;1913;-39
2023/02/25 06:19:09;;;;;;;;;;;;;;;;;;5073091;28;1581;-39
2023/02/25 06:21:36;;;;;;;;;;;;;;;;;;5072973;28;2045;-39
2023/02/25 06:24:04;;;;;;;;;;;;;;;;;;5072897;28;1910;-40
2023/02/25 06:26:31;;;;;;;;;;;;;;;;;;5072660;28;1974;-39
2023/02/25 06:28:58;;;;;;;;;;;;;;;;;;5072372;28;2183;-39
2023/02/25 06:31:26;;;;;;;;;;;;;;;;;;5072298;28;2261;-39
2023/02/25 06:33:54;;;;;;;;;;;;;;;;;;5072606;28;1727;-41
2023/02/25 06:36:21;;;;;;;;;;;;;;;;;;5072378;28;1980;-40
2023/02/25 06:38:49;;;;;;;;;;;;;;;;;;5072202;28;1987;-38
2023/02/25 06:41:18;;;;;;;;;;;;;;;;;;5072554;28;1643;-40
2023/02/25 06:43:45;;;;;;;;;;;;;;;;;;5072255;28;1549;-42
2023/02/25 06:46:13;;;;;;;;;;;;;;;;;;5072026;28;1695;-41
2023/02/25 06:48:40;;;;;;;;;;;;;;;;;;5072063;28;1690;-40
2023/02/25 06:51:09;;;;;;;;;;;;;;;;;;5072290;28;1989;-40
2023/02/25 06:53:37;;;;;;;;;;;;;;;;;;5072378;28;1649;-41
2023/02/25 06:56:07;;;;;;;;;;;;;;;;;;5072084;28;2074;-46
2023/02/25 06:58:34;;;;;;;;;;;;;;;;;;5072310;28;2162;-44
2023/02/25 07:01:08;;;;;;;;;;;;;;;;;;5071960;28;1698;-49
2023/02/25 07:03:36;;;;;;;;;;;;;;;;;;5074199;28;2067;-45
2023/02/25 07:06:03;;;;;;;;;;;;;;;;;;5077537;28;1688;-42
2023/02/25 07:08:31;;;;;;;;;;;;;;;;;;5053821;28;2003;-43
2023/02/25 07:11:16;;;;;;;;;;;;;;;;;;5071959;28;1858;-44
2023/02/25 07:13:45;;;;;;;;;;;;;;;;;;5071712;28;1806;-43
2023/02/25 07:16:13;;;;;;;;;;;;;;;;;;5071857;28;1906;-40
2023/02/25 07:18:41;;;;;;;;;;;;;;;;;;5071678;28;2247;-42
2023/02/25 07:21:08;;;;;;;;;;;;;;;;;;5071790;28;1905;-40
2023/02/25 07:23:35;;;;;;;;;;;;;;;;;;5071568;28;2086;-43
2023/02/25 07:26:03;;;;;;;;;;;;;;;;;;5071534;28;1683;-39
2023/02/25 07:28:31;;;;;;;;;;;;;;;;;;5071521;28;1424;-40
2023/02/25 07:31:24;;;;;;;;;;;;;;;;;;5071544;28;1881;-39
2023/02/25 07:33:55;;;;;;;;;;;;;;;;;;5068350;28;1633;-42
2023/02/25 07:36:22;;;;;;;;;;;;;;;;;;5071145;28;1923;-41
2023/02/25 07:38:49;;;;;;;;;;;;;;;;;;5071174;28;2012;-41
2023/02/25 07:41:17;;;;;;;;;;;;;;;;;;5071368;28;1871;-40
2023/02/25 07:43:45;;;;;;;;;;;;;;;;;;5071165;28;2092;-40
2023/02/25 07:46:12;;;;;;;;;;;;;;;;;;5070782;28;1802;-40
2023/02/25 07:48:39;;;;;;;;;;;;;;;;;;5071089;28;2110;-40
2023/02/25 07:51:08;;;;;;;;;;;;;;;;;;5071387;28;2074;-40
2023/02/25 07:53:35;;;;;;;;;;;;;;;;;;5071322;28;1563;-41
2023/02/25 07:56:04;;;;;;;;;;;;;;;;;;5071129;28;1986;-40
2023/02/25 07:58:32;;;;;;;;;;;;;;;;;;5070975;28;2310;-44
2023/02/25 08:01:02;;;;;;;;;;;;;;;;;;5070999;28;1834;-40
2023/02/25 08:03:29;;;;;;;;;;;;;;;;;;5071005;28;1820;-40
2023/02/25 08:06:01;;;;;;;;;;;;;;;;;;5071127;28;1857;-41
2023/02/25 08:08:28;;;;;;;;;;;;;;;;;;5070545;28;1972;-39
2023/02/25 08:10:55;;;;;;;;;;;;;;;;;;5070960;28;2019;-39
2023/02/25 08:13:22;;;;;;;;;;;;;;;;;;5071388;28;1985;-40
2023/02/25 08:15:50;;;;;;;;;;;;;;;;;;5070791;28;2166;-39
2023/02/25 08:18:17;;;;;;;;;;;;;;;;;;5070814;28;2304;-44
2023/02/25 08:20:46;;;;;;;;;;;;;;;;;;5073405;28;1693;-41
2023/02/25 08:23:13;;;;;;;;;;;;;;;;;;5075091;28;1971;-43
2023/02/25 08:25:41;;;;;;;;;;;;;;;;;;5074755;28;2078;-39
2023/02/25 08:28:08;;;;;;;;;;;;;;;;;;5075089;28;1990;-37
2023/02/25 08:30:36;;;;;;;;;;;;;;;;;;5075157;28;1802;-43
2023/02/25 08:33:04;;;;;;;;;;;;;;;;;;5074955;28;2142;-39
2023/02/25 08:35:31;;;;;;;;;;;;;;;;;;5074512;28;2018;-40
2023/02/25 08:37:58;;;;;;;;;;;;;;;;;;5074771;28;2093;-40
2023/02/25 08:40:25;;;;;;;;;;;;;;;;;;5074542;28;2088;-39
2023/02/25 08:42:52;;;;;;;;;;;;;;;;;;5074599;28;1347;-40
2023/02/25 08:45:20;;;;;;;;;;;;;;;;;;5074703;28;2039;-40
2023/02/25 08:47:48;;;;;;;;;;;;;;;;;;5074703;28;1998;-40
2023/02/25 08:50:18;;;;;;;;;;;;;;;;;;5074396;28;2528;-40
2023/02/25 08:52:45;;;;;;;;;;;;;;;;;;5074132;28;1702;-39
2023/02/25 08:55:14;;;;;;;;;;;;;;;;;;5074371;28;1974;-40
2023/02/25 08:57:41;;;;;;;;;;;;;;;;;;5074273;28;2331;-44
2023/02/25 09:00:10;;;;;;;;;;;;;;;;;;5074552;28;1985;-41
2023/02/25 09:02:37;;;;;;;;;;;;;;;;;;5074579;28;2189;-43
2023/02/25 09:05:05;;;;;;;;;;;;;;;;;;5074137;28;1889;-39
2023/02/25 09:07:32;;;;;;;;;;;;;;;;;;5074228;28;2024;-41
2023/02/25 09:09:59;;;;;;;;;;;;;;;;;;5074366;28;2066;-41
2023/02/25 09:12:26;;;;;;;;;;;;;;;;;;5074012;28;1802;-42
2023/02/25 09:14:53;;;;;;;;;;;;;;;;;;5073881;28;1681;-49
2023/02/25 09:17:20;;;;;;;;;;;;;;;;;;5073755;28;1989;-40
2023/02/25 09:19:50;;;;;;;;;;;;;;;;;;5073896;28;1810;-43
2023/02/25 09:22:18;;;;;;;;;;;;;;;;;;5073875;28;1990;-41
2023/02/25 09:24:45;;;;;;;;;;;;;;;;;;5056015;28;1661;-44
2023/02/25 09:27:14;;;;;;;;;;;;;;;;;;5073755;28;2102;-47
2023/02/25 09:29:41;;;;;;;;;;;;;;;;;;5073796;28;1716;-48
2023/02/25 09:32:18;;;;;;;;;;;;;;;;;;5073779;28;1605;-44
2023/02/25 09:34:47;;;;;;;;;;;;;;;;;;5073183;28;1898;-47
2023/02/25 09:37:15;;;;;;;;;;;;;;;;;;5073718;28;1908;-46
2023/02/25 09:39:42;;;;;;;;;;;;;;;;;;5073595;28;2224;-47
2023/02/25 09:42:12;;;;;;;;;;;;;;;;;;5073701;28;1913;-40
2023/02/25 09:45:00;;;;;;;;;;;;;;;;;;5073449;28;2039;-43
2023/02/25 09:47:35;;;;;;;;;;;;;;;;;;5073039;28;2032;-49
2023/02/25 09:50:05;;;;;;;;;;;;;;;;;;5073445;28;2092;-43
2023/02/25 09:52:35;;;;;;;;;;;;;;;;;;5083923;28;2145;-43
2023/02/25 09:55:27;;;;;;;;;;;;;;;;;;5093528;28;1911;-42
2023/02/25 09:57:57;;;;;;;;;;;;;;;;;;5093853;28;2147;-40
2023/02/25 10:00:26;;;;;;;;;;;;;;;;;;5093583;28;1229;-46
2023/02/25 10:02:57;;;;;;;;;;;;;;;;;;5093217;28;2316;-41
2023/02/25 10:05:24;;;;;;;;;;;;;;;;;;5084260;28;2206;-39
2023/02/25 10:07:55;;;;;;;;;;;;;;;;;;5073253;28;1864;-44
2023/02/25 10:10:48;;;;;;;;;;;;;;;;;;5073136;28;2145;-40
2023/02/25 10:13:31;;;;;;;;;;;;;;;;;;5070514;28;1895;-41
2023/02/25 10:16:21;;;;;;;;;;;;;;;;;;5072684;28;2114;-49
2023/02/25 10:18:57;;;;;;;;;;;;;;;;;;5065028;28;1933;-39
2023/02/25 10:21:24;;;;;;;;;;;;;;;;;;5071587;28;1811;-39
2023/02/25 10:24:10;;;;;;;;;;;;;;;;;;5072860;28;1497;-40
2023/02/25 10:26:40;;;;;;;;;;;;;;;;;;5072611;28;1904;-39
2023/02/25 10:29:12;;;;;;;;;;;;;;;;;;5072756;28;2141;-40
2023/02/25 10:31:42;;;;;;;;;;;;;;;;;;5072802;28;1653;-39
2023/02/25 10:34:29;;;;;;;;;;;;;;;;;;5072747;28;2143;-39
2023/02/25 10:36:57;;;;;;;;;;;;;;;;;;5072254;28;1984;-40
2023/02/25 10:39:26;;;;;;;;;;;;;;;;;;5072401;28;1913;-40
2023/02/25 10:41:53;;;;;;;;;;;;;;;;;;5072230;28;2054;-40
2023/02/25 10:44:20;;;;;;;;;;;;;;;;;;5071839;28;1647;-40
2023/02/25 10:46:51;;;;;;;;;;;;;;;;;;5072597;28;1869;-50
2023/02/25 10:49:25;;;;;;;;;;;;;;;;;;5072120;28;2170;-41
2023/02/25 10:52:05;;;;;;;;;;;;;;;;;;5071932;28;1633;-39
2023/02/25 10:54:34;;;;;;;;;;;;;;;;;;5071894;28;1272;-39
2023/02/25 10:57:07;;;;;;;;;;;;;;;;;;5071813;28;1997;-43
2023/02/25 10:59:37;;;;;;;;;;;;;;;;;;5071939;28;1593;-41
2023/02/25 11:02:19;;;;;;;;;;;;;;;;;;5071121;28;2011;-40
2023/02/25 11:04:47;;;;;;;;;;;;;;;;;;5075553;28;1573;-39
2023/02/25 11:07:28;;;;;;;;;;;;;;;;;;5091948;28;2301;-40
2023/02/25 11:10:12;;;;;;;;;;;;;;;;;;5092226;28;1685;-40
2023/02/25 11:12:44;;;;;;;;;;;;;;;;;;5073520;28;2193;-44
2023/02/25 11:15:20;;;;;;;;;;;;;;;;;;5071739;28;1967;-41
2023/02/25 11:17:58;;;;;;;;;;;;;;;;;;5071819;28;1961;-39
2023/02/25 11:20:26;;;;;;;;;;;;;;;;;;5071545;28;1952;-40
2023/02/25 11:22:55;;;;;;;;;;;;;;;;;;5071594;28;1934;-39
2023/02/25 11:25:52;;;;;;;;;;;;;;;;;;5071723;28;1982;-39
2023/02/25 11:28:27;;;;;;;;;;;;;;;;;;5058854;28;2066;-40
2023/02/25 11:31:03;;;;;;;;;;;;;;;;;;5071271;28;1810;-42
2023/02/25 11:33:35;;;;;;;;;;;;;;;;;;5071600;28;1761;-42
2023/02/25 11:36:03;;;;;;;;;;;;;;;;;;5071306;28;1916;-41
2023/02/25 11:38:30;;;;;;;;;;;;;;;;;;5071387;28;1887;-43
2023/02/25 11:40:58;;;;;;;;;;;;;;;;;;5071310;28;1723;-41
2023/02/25 11:43:26;;;;;;;;;;;;;;;;;;5071362;28;1802;-40
2023/02/25 11:45:59;;;;;;;;;;;;;;;;;;5071287;28;1948;-41
2023/02/25 11:48:29;;;;;;;;;;;;;;;;;;5071348;28;2049;-41
2023/02/25 11:51:05;;;;;;;;;;;;;;;;;;5071300;28;1969;-41
2023/02/25 11:53:41;;;;;;;;;;;;;;;;;;5071248;28;2123;-41
2023/02/25 11:56:15;;;;;;;;;;;;;;;;;;5070637;28;1970;-40
2023/02/25 11:59:01;;;;;;;;;;;;;;;;;;5071040;28;2092;-40
2023/02/25 12:01:47;;;;;;;;;;;;;;;;;;5071114;28;2218;-39
2023/02/25 12:04:32;;;;;;;;;;;;;;;;;;5071050;28;2041;-40
2023/02/25 12:07:18;;;;;;;;;;;;;;;;;;5071071;28;1966;-41
2023/02/25 12:10:24;;;;;;;;;;;;;;;;;;5070772;28;1678;-39
2023/02/25 12:13:21;;;;;;;;;;;;;;;;;;5008651;28;1781;-39
2023/02/25 12:16:07;;;;;;;;;;;;;;;;;;5009001;28;1838;-40
2023/02/25 12:18:53;;;;;;;;;;;;;;;;;;5059738;28;1508;-40
2023/02/25 12:21:39;;;;;;;;;;;;;;;;;;5071172;28;1898;-40
2023/02/25 12:24:14;;;;;;;;;;;;;;;;;;5071086;28;1919;-39
2023/02/25 12:26:49;;;;;;;;;;;;;;;;;;5070757;28;2029;-39
2023/02/25 12:29:23;;;;;;;;;;;;;;;;;;5075248;28;1497;-40
2023/02/25 12:32:25;;;;;;;;;;;;;;;;;;5091015;28;2056;-39
2023/02/25 12:35:11;;;;;;;;;;;;;;;;;;5008595;28;1749;-41
2023/02/25 12:37:41;;;;;;;;;;;;;;;;;;5067151;28;1906;-42
2023/02/25 12:40:31;;;;;;;;;;;;;;;;;;5070944;28;1916;-40
2023/02/25 12:43:14;;;;;;;;;;;;;;;;;;5070561;28;2142;-40
2023/02/25 12:45:44;;;;;;;;;;;;;;;;;;5070706;28;2049;-40
2023/02/25 12:48:30;;;;;;;;;;;;;;;;;;5070609;28;1848;-39
2023/02/25 12:51:15;;;;;;;;;;;;;;;;;;5070620;28;2034;-39
2023/02/25 12:54:12;;;;;;;;;;;;;;;;;;5070578;28;1661;-41
2023/02/25 12:56:52;;;;;;;;;;;;;;;;;;5061543;28;1908;-40
2023/02/25 12:59:19;;;;;;;;;;;;;;;;;;5070661;28;1789;-41
2023/02/25 13:02:00;;;;;;;;;;;;;;;;;;5070339;28;1678;-41
2023/02/25 13:04:44;;;;;;;;;;;;;;;;;;5068597;28;1769;-39
2023/02/25 13:07:21;;;;;;;;;;;;;;;;;;5052879;28;1504;-41
2023/02/25 13:10:03;;;;;;;;;;;;;;;;;;5054104;28;1384;-40
2023/02/25 13:12:40;;;;;;;;;;;;;;;;;;5054044;28;1849;-40
2023/02/25 13:15:24;;;;;;;;;;;;;;;;;;5054363;28;1666;-40
2023/02/25 13:18:10;;;;;;;;;;;;;;;;;;5053960;28;1906;-39
2023/02/25 13:20:42;;;;;;;;;;;;;;;;;;5054072;28;2104;-46
2023/02/25 13:23:32;;;;;;;;;;;;;;;;;;5054099;28;1598;-40
2023/02/25 13:26:03;;;;;;;;;;;;;;;;;;5063446;28;1679;-39
2023/02/25 13:28:47;;;;;;;;;;;;;;;;;;5073721;28;1853;-41
2023/02/25 13:31:19;;;;;;;;;;;;;;;;;;5073843;28;2019;-42
2023/02/25 13:34:12;;;;;;;;;;;;;;;;;;5073571;28;1632;-44
2023/02/25 13:36:46;;;;;;;;;;;;;;;;;;5073531;28;1906;-40
2023/02/25 13:39:20;;;;;;;;;;;;;;;;;;5073699;28;2076;-40
2023/02/25 13:42:12;;;;;;;;;;;;;;;;;;5064267;28;1663;-41
2023/02/25 13:44:57;;;;;;;;;;;;;;;;;;5053539;28;2264;-39
2023/02/25 13:47:38;;;;;;;;;;;;;;;;;;5053695;28;1724;-40
2023/02/25 13:50:27;;;;;;;;;;;;;;;;;;5053407;28;1486;-39
2023/02/25 13:53:13;;;;;;;;;;;;;;;;;;5052502;28;2064;-45
2023/02/25 13:55:59;;;;;;;;;;;;;;;;;;5052671;28;1884;-39
2023/02/25 13:58:45;;;;;;;;;;;;;;;;;;5053211;28;1972;-40
2023/02/25 14:01:16;;;;;;;;;;;;;;;;;;5053178;28;1796;-47
2023/02/25 14:04:01;;;;;;;;;;;;;;;;;;5052792;28;2141;-41
2023/02/25 14:06:28;;;;;;;;;;;;;;;;;;5070974;28;1865;-43
2023/02/25 14:09:14;;;;;;;;;;;;;;;;;;5073052;28;2145;-38
2023/02/25 14:11:42;;;;;;;;;;;;;;;;;;5071995;28;1754;-39
2023/02/25 14:14:13;;;;;;;;;;;;;;;;;;5071849;28;2159;-40
2023/02/25 14:16:46;;;;;;;;;;;;;;;;;;5072879;28;1919;-39
2023/02/25 14:19:32;;;;;;;;;;;;;;;;;;5072063;28;1984;-38
2023/02/25 14:22:19;;;;;;;;;;;;;;;;;;5071469;28;2042;-39
2023/02/25 14:25:06;;;;;;;;;;;;;;;;;;5072609;28;1579;-39
2023/02/25 14:27:34;;;;;;;;;;;;;;;;;;5072575;28;2082;-40
2023/02/25 14:30:11;;;;;;;;;;;;;;;;;;5072586;28;1509;-40
2023/02/25 14:32:58;;;;;;;;;;;;;;;;;;5072809;28;2085;-39
2023/02/25 14:35:32;;;;;;;;;;;;;;;;;;5067515;28;2005;-40
2023/02/25 14:38:02;;;;;;;;;;;;;;;;;;5072552;28;1943;-39
2023/02/25 14:40:39;;;;;;;;;;;;;;;;;;5072596;28;1718;-40
2023/02/25 14:43:12;;;;;;;;;;;;;;;;;;5072374;28;2195;-40
2023/02/25 14:45:45;;;;;;;;;;;;;;;;;;5071356;28;2008;-38
2023/02/25 14:48:12;;;;;;;;;;;;;;;;;;5072333;28;1950;-40
2023/02/25 14:50:45;;;;;;;;;;;;;;;;;;5072345;28;1561;-39
2023/02/25 14:53:40;;;;;;;;;;;;;;;;;;5071995;28;1774;-39
2023/02/25 14:56:17;;;;;;;;;;;;;;;;;;5072886;28;1972;-40
2023/02/25 14:59:06;;;;;;;;;;;;;;;;;;5072122;28;1910;-41
2023/02/25 15:01:52;;;;;;;;;;;;;;;;;;5071894;28;1710;-39
2023/02/25 15:04:42;;;;;;;;;;;;;;;;;;5071716;28;1778;-41
2023/02/25 15:07:28;;;;;;;;;;;;;;;;;;5069554;28;1787;-41
2023/02/25 15:10:19;;;;;;;;;;;;;;;;;;5071662;28;2026;-40
2023/02/25 15:13:11;;;;;;;;;;;;;;;;;;5072032;28;1842;-39
2023/02/25 15:15:52;;;;;;;;;;;;;;;;;;5071938;28;2111;-39
2023/02/25 15:18:22;;;;;;;;;;;;;;;;;;5071690;28;1981;-39
2023/02/25 15:20:50;;;;;;;;;;;;;;;;;;5071544;28;2134;-39
2023/02/25 15:23:18;;;;;;;;;;;;;;;;;;5071713;28;1649;-38
2023/02/25 15:25:49;;;;;;;;;;;;;;;;;;5071746;28;1493;-39
2023/02/25 15:28:28;;;;;;;;;;;;;;;;;;5071299;28;2028;-40
2023/02/25 15:30:59;;;;;;;;;;;;;;;;;;5071207;28;1775;-39
2023/02/25 15:33:26;;;;;;;;;;;;;;;;;;5070169;28;1885;-38
2023/02/25 15:35:56;;;;;;;;;;;;;;;;;;5086855;28;1997;-39
2023/02/25 15:38:38;;;;;;;;;;;;;;;;;;5091493;28;2015;-41
2023/02/25 15:41:23;;;;;;;;;;;;;;;;;;5091248;28;1256;-39
2023/02/25 15:43:52;;;;;;;;;;;;;;;;;;5091593;28;1792;-46
2023/02/25 15:46:22;;;;;;;;;;;;;;;;;;5091378;28;1669;-40
2023/02/25 15:49:02;;;;;;;;;;;;;;;;;;5091278;28;1867;-39
2023/02/25 15:51:42;;;;;;;;;;;;;;;;;;5091043;28;1749;-39
2023/02/25 15:54:09;;;;;;;;;;;;;;;;;;5073905;28;1666;-39
2023/02/25 15:56:50;;;;;;;;;;;;;;;;;;5091384;28;1372;-39
2023/02/25 15:59:36;;;;;;;;;;;;;;;;;;5091255;28;1858;-38
2023/02/25 16:02:23;;;;;;;;;;;;;;;;;;5091111;28;1809;-39
2023/02/25 16:04:50;;;;;;;;;;;;;;;;;;5086248;28;2068;-41
2023/02/25 16:07:19;;;;;;;;;;;;;;;;;;5053496;28;1773;-38
2023/02/25 16:09:52;;;;;;;;;;;;;;;;;;5070788;28;1902;-38
2023/02/25 16:12:20;;;;;;;;;;;;;;;;;;5070463;28;2320;-38
2023/02/25 16:14:48;;;;;;;;;;;;;;;;;;5070716;28;1723;-39
2023/02/25 16:17:41;;;;;;;;;;;;;;;;;;5070952;28;2071;-39
2023/02/25 16:20:12;;;;;;;;;;;;;;;;;;5068148;28;1765;-40
2023/02/25 16:22:42;;;;;;;;;;;;;;;;;;5070364;28;1505;-39
2023/02/25 16:25:14;;;;;;;;;;;;;;;;;;5070822;28;2164;-39
2023/02/25 16:27:41;;;;;;;;;;;;;;;;;;5070998;28;2140;-38
2023/02/25 16:30:15;;;;;;;;;;;;;;;;;;5070841;28;2173;-40
2023/02/25 16:32:42;;;;;;;;;;;;;;;;;;5070920;28;2126;-39
2023/02/25 16:35:28;;;;;;;;;;;;;;;;;;5070761;28;2130;-38
2023/02/25 16:38:14;;;;;;;;;;;;;;;;;;5070518;28;1940;-39
2023/02/25 16:40:42;;;;;;;;;;;;;;;;;;5071124;28;1985;-39
2023/02/25 16:43:14;;;;;;;;;;;;;;;;;;5074933;28;2008;-43
2023/02/25 16:46:05;;;;;;;;;;;;;;;;;;5074551;28;1987;-40
2023/02/25 16:48:46;;;;;;;;;;;;;;;;;;5067115;28;1698;-39
2023/02/25 16:51:34;;;;;;;;;;;;;;;;;;5074478;28;1529;-40
2023/02/25 16:54:04;;;;;;;;;;;;;;;;;;5073555;28;1903;-40
2023/02/25 16:56:32;;;;;;;;;;;;;;;;;;5074304;28;1759;-40
2023/02/25 16:59:03;;;;;;;;;;;;;;;;;;5074059;28;1969;-41
2023/02/25 17:01:32;;;;;;;;;;;;;;;;;;5074398;28;1818;-45
2023/02/25 17:04:19;;;;;;;;;;;;;;;;;;5074198;28;1714;-40
2023/02/25 17:07:05;;;;;;;;;;;;;;;;;;5072714;28;1434;-39
2023/02/25 17:09:33;;;;;;;;;;;;;;;;;;5074201;28;1808;-40
2023/02/25 17:12:01;;;;;;;;;;;;;;;;;;5074109;28;1693;-40
2023/02/25 17:14:29;;;;;;;;;;;;;;;;;;5073946;28;2019;-39
2023/02/25 17:16:57;;;;;;;;;;;;;;;;;;5073921;28;1692;-39
2023/02/25 17:19:25;;;;;;;;;;;;;;;;;;5073819;28;2484;-39
2023/02/25 17:21:54;;;;;;;;;;;;;;;;;;5087620;28;1665;-39
2023/02/25 17:24:26;;;;;;;;;;;;;;;;;;5094061;28;1869;-38
2023/02/25 17:26:54;;;;;;;;;;;;;;;;;;5092736;28;1713;-38
2023/02/25 17:29:21;;;;;;;;;;;;;;;;;;5091923;28;1730;-40
2023/02/25 17:31:50;;;;;;;;;;;;;;;;;;5091823;28;1361;-45
2023/02/25 17:34:21;;;;;;;;;;;;;;;;;;5092372;28;1994;-38
2023/02/25 17:36:49;;;;;;;;;;;;;;;;;;5092227;28;1898;-39
2023/02/25 17:39:19;;;;;;;;;;;;;;;;;;5073988;28;2531;-39